createdAt,value
2023-05-22T00:00:19.435Z,94716.25
2023-05-22T00:02:46.606Z,94742.81
2023-05-22T00:05:14.783Z,94748.38
2023-05-22T00:07:46.048Z,94740.59
2023-05-22T00:10:12.992Z,94738.84
2023-05-22T00:12:40.444Z,94754.66
2023-05-22T00:15:07.885Z,94718.59
2023-05-22T00:17:35.532Z,94716.13
2023-05-22T00:20:11.082Z,94717.84
2023-05-22T00:22:39.156Z,94746.19
2023-05-22T00:25:07.377Z,94764.13
2023-05-22T00:27:34.470Z,94709.56
2023-05-22T00:30:01.741Z,94726.63
2023-05-22T00:32:28.935Z,94761.13
2023-05-22T00:34:56.834Z,94749.69
2023-05-22T00:37:23.815Z,94750.72
2023-05-22T00:39:50.855Z,94748.63
2023-05-22T00:42:18.712Z,94728.31
2023-05-22T00:44:46.078Z,94765.38
2023-05-22T00:47:13.124Z,94770.09
2023-05-22T00:49:40.792Z,94744.56
2023-05-22T00:52:09.383Z,94756.28
2023-05-22T00:54:36.722Z,94762.25
2023-05-22T00:57:04.403Z,94728.94
2023-05-22T00:59:31.543Z,94738.44
2023-05-22T01:01:58.799Z,94746.16
2023-05-22T01:04:26.357Z,94738.63
2023-05-22T01:06:55.168Z,94751.66
2023-05-22T01:09:25.662Z,94746.34
2023-05-22T01:11:58.540Z,94745.09
2023-05-22T01:14:41.348Z,94752.81
2023-05-22T01:17:25.973Z,94743.78
2023-05-22T01:20:07.365Z,94746.19
2023-05-22T01:22:58.719Z,94739.38
2023-05-22T01:25:41.259Z,94753.16
2023-05-22T01:28:26.450Z,94744.63
2023-05-22T01:31:04.392Z,94742.91
2023-05-22T01:33:37.392Z,94747.38
2023-05-22T01:36:07.875Z,94698.13
2023-05-22T01:38:35.227Z,94716.75
2023-05-22T01:41:02.149Z,94704.97
2023-05-22T01:43:29.447Z,94739.78
2023-05-22T01:45:56.275Z,94734.53
2023-05-22T01:48:23.176Z,94716.16
2023-05-22T01:50:52.703Z,94727.44
2023-05-22T01:53:37.133Z,94737.06
2023-05-22T01:56:10.292Z,94726.09
2023-05-22T01:58:49.381Z,94737.81
2023-05-22T02:01:19.538Z,94700.28
2023-05-22T02:03:52.100Z,94722.25
2023-05-22T02:06:19.953Z,94654.09
2023-05-22T02:08:47.472Z,94716.03
2023-05-22T02:11:16.755Z,94735.16
2023-05-22T02:13:43.860Z,94711.09
2023-05-22T02:16:12.316Z,94707.03
2023-05-22T02:18:41.794Z,94721.19
2023-05-22T02:21:08.819Z,94703.94
2023-05-22T02:23:36.203Z,94717.53
2023-05-22T02:26:03.272Z,94696.50
2023-05-22T02:28:29.968Z,94733.69
2023-05-22T02:30:57.196Z,94735.13
2023-05-22T02:33:23.981Z,94696.84
2023-05-22T02:35:50.746Z,94735.53
2023-05-22T02:38:18.598Z,94742.75
2023-05-22T02:40:47.209Z,94687.56
2023-05-22T02:43:14.434Z,94742.06
2023-05-22T02:45:41.656Z,94741.13
2023-05-22T02:48:08.723Z,94746.50
2023-05-22T02:50:35.659Z,94744.03
2023-05-22T02:53:02.327Z,94714.59
2023-05-22T02:55:28.986Z,94731.88
2023-05-22T02:57:55.958Z,94732.34
2023-05-22T03:00:23.159Z,94735.09
2023-05-22T03:02:49.930Z,94704.28
2023-05-22T03:05:18.019Z,94733.59
2023-05-22T03:07:48.367Z,94711.53
2023-05-22T03:10:16.029Z,94667.41
2023-05-22T03:12:43.013Z,94707.66
2023-05-22T03:15:11.189Z,94712.56
2023-05-22T03:17:38.051Z,94721.06
2023-05-22T03:20:05.556Z,94702.16
2023-05-22T03:22:32.703Z,94734.09
2023-05-22T03:24:59.752Z,94740.84
2023-05-22T03:27:26.790Z,94700.84
2023-05-22T03:29:53.847Z,94732.91
2023-05-22T03:32:20.591Z,94726.97
2023-05-22T03:34:47.662Z,94694.47
2023-05-22T03:37:15.007Z,94716.31
2023-05-22T03:39:41.758Z,94725.72
2023-05-22T03:42:08.582Z,94696.84
2023-05-22T03:44:35.319Z,94738.28
2023-05-22T03:47:02.090Z,94733.38
2023-05-22T03:49:28.751Z,94731.44
2023-05-22T03:51:55.348Z,94734.69
2023-05-22T03:54:22.148Z,94737.22
2023-05-22T03:56:49.418Z,94715.00
2023-05-22T03:59:16.506Z,94747.97
2023-05-22T04:01:44.213Z,94739.72
2023-05-22T04:04:12.288Z,94745.72
2023-05-22T04:06:43.652Z,94751.09
2023-05-22T04:09:12.158Z,94673.47
2023-05-22T04:11:43.312Z,94742.63
2023-05-22T04:14:10.537Z,94758.81
2023-05-22T04:16:40.602Z,94734.28
2023-05-22T04:19:09.850Z,94723.00
2023-05-22T04:21:38.528Z,94708.56
2023-05-22T04:24:07.549Z,94703.81
2023-05-22T04:26:34.756Z,94699.50
2023-05-22T04:29:02.334Z,94752.63
2023-05-22T04:31:29.408Z,94761.28
2023-05-22T04:33:56.694Z,94703.63
2023-05-22T04:36:26.236Z,94649.81
2023-05-22T04:38:54.164Z,94676.25
2023-05-22T04:41:22.759Z,94754.84
2023-05-22T04:43:49.684Z,94715.78
2023-05-22T04:46:16.555Z,94761.44
2023-05-22T04:48:43.560Z,94728.72
2023-05-22T04:51:10.554Z,94745.41
2023-05-22T04:53:38.862Z,94768.25
2023-05-22T04:56:06.666Z,94739.16
2023-05-22T04:58:33.807Z,94745.50
2023-05-22T05:01:00.785Z,94767.66
2023-05-22T05:03:28.742Z,94756.22
2023-05-22T05:05:59.926Z,94743.13
2023-05-22T05:08:26.926Z,94742.72
2023-05-22T05:10:53.940Z,94754.25
2023-05-22T05:13:21.450Z,94770.50
2023-05-22T05:15:49.076Z,94776.50
2023-05-22T05:18:17.179Z,94744.53
2023-05-22T05:20:45.286Z,94752.03
2023-05-22T05:23:12.382Z,94766.31
2023-05-22T05:25:39.548Z,94785.97
2023-05-22T05:28:10.880Z,94771.34
2023-05-22T05:31:19.008Z,94723.28
2023-05-22T05:33:47.001Z,94772.75
2023-05-22T05:36:15.005Z,94779.03
2023-05-22T05:38:42.626Z,94775.47
2023-05-22T05:41:09.835Z,94777.13
2023-05-22T05:43:37.221Z,94763.06
2023-05-22T05:46:04.162Z,94773.16
2023-05-22T05:48:40.467Z,94786.50
2023-05-22T05:51:07.682Z,94792.13
2023-05-22T05:53:37.045Z,94793.56
2023-05-22T05:56:16.896Z,94769.06
2023-05-22T05:58:46.828Z,94774.69
2023-05-22T06:01:14.492Z,94802.19
2023-05-22T06:03:41.892Z,94805.41
2023-05-22T06:06:08.803Z,94800.50
2023-05-22T06:08:35.669Z,94781.88
2023-05-22T06:11:03.425Z,94769.06
2023-05-22T06:13:30.624Z,94770.59
2023-05-22T06:15:59.587Z,94726.19
2023-05-22T06:18:28.995Z,94805.81
2023-05-22T06:20:57.824Z,94782.53
2023-05-22T06:23:27.268Z,94736.13
2023-05-22T06:25:54.137Z,94796.94
2023-05-22T06:28:24.493Z,94797.84
2023-05-22T06:30:51.832Z,94788.28
2023-05-22T06:33:18.709Z,94742.06
2023-05-22T06:35:45.489Z,94772.28
2023-05-22T06:38:12.143Z,94789.03
2023-05-22T06:40:38.960Z,94792.59
2023-05-22T06:43:05.798Z,94795.31
2023-05-22T06:45:32.487Z,94796.19
2023-05-22T06:47:59.429Z,94790.47
2023-05-22T06:50:26.231Z,94787.94
2023-05-22T06:52:53.802Z,94784.34
2023-05-22T06:55:20.532Z,94793.13
2023-05-22T06:57:47.516Z,94766.06
2023-05-22T07:00:20.929Z,94794.31
2023-05-22T07:02:48.673Z,94791.50
2023-05-22T07:05:15.803Z,94791.84
2023-05-22T07:07:43.789Z,94796.13
2023-05-22T07:10:11.023Z,94788.25
2023-05-22T07:12:37.883Z,94786.72
2023-05-22T07:15:04.860Z,94795.50
2023-05-22T07:17:32.649Z,94791.91
2023-05-22T07:19:59.897Z,94753.66
2023-05-22T07:22:27.091Z,94779.56
2023-05-22T07:24:53.741Z,94773.41
2023-05-22T07:27:20.821Z,94792.56
2023-05-22T07:29:47.576Z,94789.88
2023-05-22T07:32:15.319Z,94774.53
2023-05-22T07:34:51.540Z,94754.13
2023-05-22T07:37:18.736Z,94799.28
2023-05-22T07:39:46.868Z,94777.97
2023-05-22T07:42:15.169Z,94780.34
2023-05-22T07:44:42.193Z,94784.28
2023-05-22T07:47:09.141Z,94778.84
2023-05-22T07:49:36.383Z,94763.59
2023-05-22T07:52:10.747Z,94760.72
2023-05-22T07:54:37.917Z,94767.00
2023-05-22T07:57:05.060Z,94777.97
2023-05-22T07:59:34.146Z,94757.44
2023-05-22T08:02:03.076Z,94773.66
2023-05-22T08:04:30.159Z,94772.97
2023-05-22T08:07:00.160Z,94741.13
2023-05-22T08:09:26.919Z,94727.50
2023-05-22T08:11:53.977Z,94758.91
2023-05-22T08:14:22.494Z,94771.66
2023-05-22T08:16:49.876Z,94727.69
2023-05-22T08:19:16.725Z,94780.25
2023-05-22T08:21:43.952Z,94781.69
2023-05-22T08:24:10.769Z,94766.88
2023-05-22T08:26:38.964Z,94771.81
2023-05-22T08:29:05.710Z,94765.22
2023-05-22T08:31:34.414Z,94751.50
2023-05-22T08:34:02.880Z,94780.09
2023-05-22T08:36:31.672Z,94779.38
2023-05-22T08:38:58.454Z,94766.44
2023-05-22T08:41:25.261Z,94773.34
2023-05-22T08:43:51.974Z,94767.81
2023-05-22T08:46:20.162Z,94779.22
2023-05-22T08:48:47.961Z,94763.69
2023-05-22T08:51:19.117Z,94742.19
2023-05-22T08:53:47.651Z,94759.03
2023-05-22T08:56:15.152Z,94772.34
2023-05-22T08:58:42.399Z,94776.78
2023-05-22T09:01:09.309Z,94736.28
2023-05-22T09:03:37.043Z,94765.31
2023-05-22T09:06:04.799Z,94753.13
2023-05-22T09:08:31.538Z,94742.94
2023-05-22T09:10:58.255Z,94766.59
2023-05-22T09:13:33.949Z,94770.84
2023-05-22T09:16:14.689Z,94760.56
2023-05-22T09:18:44.645Z,94764.03
2023-05-22T09:21:28.970Z,94753.69
2023-05-22T09:24:03.304Z,94724.41
2023-05-22T09:26:30.261Z,94684.81
2023-05-22T09:28:59.773Z,94761.38
2023-05-22T09:31:27.686Z,94772.69
2023-05-22T09:33:59.228Z,94750.06
2023-05-22T09:36:33.247Z,94762.72
2023-05-22T09:39:04.807Z,94750.38
2023-05-22T09:41:37.488Z,94736.31
2023-05-22T09:44:12.872Z,94764.16
2023-05-22T09:46:45.512Z,94776.94
2023-05-22T09:49:15.796Z,94748.88
2023-05-22T09:51:48.056Z,94763.00
2023-05-22T09:54:16.540Z,94753.19
2023-05-22T09:56:44.362Z,94756.44
2023-05-22T09:59:13.974Z,94760.03
2023-05-22T10:01:42.754Z,94745.81
2023-05-22T10:04:16.758Z,94755.97
2023-05-22T10:06:50.439Z,94752.84
2023-05-22T10:09:19.664Z,94727.06
2023-05-22T10:11:48.046Z,94757.44
2023-05-22T10:14:15.856Z,94761.78
2023-05-22T10:16:47.215Z,94766.03
2023-05-22T10:19:14.554Z,94765.31
2023-05-22T10:21:41.782Z,94762.13
2023-05-22T10:24:09.225Z,94769.91
2023-05-22T10:26:36.390Z,94762.66
2023-05-22T10:29:18.203Z,94737.09
2023-05-22T10:31:56.062Z,94751.91
2023-05-22T10:34:51.188Z,94739.16
2023-05-22T10:37:33.143Z,94759.66
2023-05-22T10:40:05.409Z,94767.50
2023-05-22T10:42:32.663Z,94763.91
2023-05-22T10:45:01.312Z,94769.22
2023-05-22T10:47:28.367Z,94764.09
2023-05-22T10:50:12.167Z,94773.72
2023-05-22T10:52:40.020Z,94772.66
2023-05-22T10:55:08.826Z,94769.31
2023-05-22T10:57:38.555Z,94759.31
2023-05-22T11:00:09.737Z,94767.66
2023-05-22T11:02:42.481Z,94751.63
2023-05-22T11:05:21.886Z,94748.91
2023-05-22T11:07:49.229Z,94728.00
2023-05-22T11:10:26.517Z,94759.91
2023-05-22T11:13:19.623Z,94749.34
2023-05-22T11:15:46.903Z,94708.75
2023-05-22T11:18:16.553Z,94745.81
2023-05-22T11:20:44.463Z,94726.03
2023-05-22T11:23:11.407Z,94741.13
2023-05-22T11:25:40.512Z,94728.47
2023-05-22T11:28:08.101Z,94712.09
2023-05-22T11:30:35.312Z,94709.72
2023-05-22T11:33:02.548Z,94724.38
2023-05-22T11:35:29.833Z,94746.03
2023-05-22T11:37:57.154Z,94761.00
2023-05-22T11:40:26.016Z,94766.31
2023-05-22T11:42:54.113Z,94785.09
2023-05-22T11:45:21.890Z,94798.53
2023-05-22T11:47:49.094Z,94778.22
2023-05-22T11:52:50.290Z,94815.94
2023-05-22T11:55:17.002Z,94795.44
2023-05-22T11:57:44.370Z,94809.94
2023-05-22T12:00:12.140Z,94805.94
2023-05-22T12:02:39.633Z,94802.44
2023-05-22T12:05:11.918Z,94775.97
2023-05-22T12:07:38.743Z,94784.72
2023-05-22T12:10:11.368Z,94794.44
2023-05-22T12:12:39.467Z,94682.28
2023-05-22T12:15:08.730Z,94804.72
2023-05-22T12:17:39.834Z,94744.47
2023-05-22T12:20:07.420Z,94792.94
2023-05-22T12:22:34.174Z,94790.16
2023-05-22T12:25:01.093Z,94747.66
2023-05-22T12:27:33.163Z,94785.06
2023-05-22T12:30:10.464Z,94763.47
2023-05-22T12:32:37.335Z,94779.09
2023-05-22T12:35:04.365Z,94757.63
2023-05-22T12:40:03.485Z,94763.38
2023-05-22T12:42:30.122Z,94766.91
2023-05-22T12:44:58.379Z,94769.16
2023-05-22T12:47:25.671Z,94770.63
2023-05-22T12:49:53.093Z,94788.66
2023-05-22T12:52:20.034Z,94774.78
2023-05-22T12:54:47.082Z,94778.63
2023-05-22T12:57:13.929Z,94776.69
2023-05-22T12:59:40.811Z,94772.00
2023-05-22T13:02:07.680Z,94777.03
2023-05-22T13:04:34.499Z,94769.75
2023-05-22T13:07:01.790Z,94763.75
2023-05-22T13:09:28.541Z,94764.13
2023-05-22T13:11:55.658Z,94761.06
2023-05-22T13:14:22.815Z,94748.84
2023-05-22T13:16:49.497Z,94747.72
2023-05-22T13:19:16.666Z,94733.16
2023-05-22T13:21:43.724Z,94745.03
2023-05-22T13:24:11.032Z,94742.41
2023-05-22T13:26:37.681Z,94742.00
2023-05-22T13:29:04.427Z,94726.44
2023-05-22T13:31:33.385Z,94725.69
2023-05-22T13:34:02.935Z,94711.28
2023-05-22T13:36:30.285Z,94716.88
2023-05-22T13:38:57.289Z,94707.09
2023-05-22T13:41:23.971Z,94712.53
2023-05-22T13:43:50.791Z,94696.34
2023-05-22T13:46:18.364Z,94696.78
2023-05-22T13:48:45.838Z,94699.69
2023-05-22T13:51:12.542Z,94698.22
2023-05-22T13:53:39.297Z,94695.56
2023-05-22T13:56:06.219Z,94701.34
2023-05-22T13:58:32.826Z,94686.59
2023-05-22T14:00:59.534Z,94687.88
2023-05-22T14:03:26.238Z,94703.38
2023-05-22T14:05:53.118Z,94695.34
2023-05-22T14:08:20.047Z,94694.72
2023-05-22T14:10:46.841Z,94697.31
2023-05-22T14:13:13.652Z,94687.84
2023-05-22T14:15:40.741Z,94684.75
2023-05-22T14:18:07.641Z,94699.31
2023-05-22T14:20:34.464Z,94688.28
2023-05-22T14:23:01.124Z,94695.81
2023-05-22T14:25:27.816Z,94698.50
2023-05-22T14:27:54.553Z,94702.22
2023-05-22T14:30:21.319Z,94699.63
2023-05-22T14:32:48.898Z,94698.22
2023-05-22T14:35:16.790Z,94693.59
2023-05-22T14:37:45.664Z,94693.38
2023-05-22T14:40:12.415Z,94706.28
2023-05-22T14:42:39.154Z,94700.66
2023-05-22T14:45:06.295Z,94712.69
2023-05-22T14:47:33.040Z,94703.78
2023-05-22T14:50:10.282Z,94713.50
2023-05-22T14:52:45.173Z,94707.41
2023-05-22T14:55:11.878Z,94717.94
2023-05-22T14:57:38.602Z,94717.00
2023-05-22T15:00:12.586Z,94738.34
2023-05-22T15:02:40.003Z,94731.34
2023-05-22T15:05:10.193Z,94732.16
2023-05-22T15:10:08.525Z,94723.59
2023-05-22T15:12:44.290Z,94722.16
2023-05-22T15:15:11.425Z,94725.13
2023-05-22T15:17:39.398Z,94720.31
2023-05-22T15:20:07.893Z,94722.72
2023-05-22T15:22:34.695Z,94723.69
2023-05-22T15:25:05.704Z,94727.94
2023-05-22T15:27:33.512Z,94721.25
2023-05-22T15:30:00.462Z,94728.75
2023-05-22T15:32:27.459Z,94720.22
2023-05-22T15:34:54.083Z,94723.19
2023-05-22T15:37:20.952Z,94717.38
2023-05-22T15:39:47.615Z,94724.13
2023-05-22T15:42:14.514Z,94725.41
2023-05-22T15:44:41.347Z,94719.59
2023-05-22T15:47:08.005Z,94716.81
2023-05-22T15:49:34.751Z,94720.72
2023-05-22T15:52:02.893Z,94733.81
2023-05-22T15:54:29.619Z,94726.47
2023-05-22T15:56:56.472Z,94730.19
2023-05-22T15:59:23.117Z,94734.88
2023-05-22T16:01:50.046Z,94713.56
2023-05-22T16:04:17.171Z,94722.59
2023-05-22T16:06:43.871Z,94729.72
2023-05-22T16:09:11.172Z,94722.94
2023-05-22T16:11:38.092Z,94720.31
2023-05-22T16:14:05.025Z,94715.91
2023-05-22T16:16:31.821Z,94720.22
2023-05-22T16:18:58.716Z,94717.44
2023-05-22T16:21:25.570Z,94716.19
2023-05-22T16:23:52.660Z,94715.22
2023-05-22T16:26:19.529Z,94701.91
2023-05-22T16:28:46.337Z,94709.94
2023-05-22T16:31:14.062Z,94714.47
2023-05-22T16:33:40.769Z,94717.59
2023-05-22T16:36:07.678Z,94711.97
2023-05-22T16:38:34.407Z,94717.47
2023-05-22T16:41:01.427Z,94720.69
2023-05-22T16:43:28.216Z,94724.78
2023-05-22T16:45:55.105Z,94721.56
2023-05-22T16:48:21.949Z,94721.63
2023-05-22T16:50:48.841Z,94730.41
2023-05-22T16:53:18.439Z,94716.69
2023-05-22T16:55:48.179Z,94731.72
2023-05-22T16:58:14.972Z,94735.69
2023-05-22T17:00:42.036Z,94742.22
2023-05-22T17:03:10.229Z,94729.72
2023-05-22T17:05:40.794Z,94731.72
2023-05-22T17:08:28.590Z,94744.75
2023-05-22T17:11:10.441Z,94756.97
2023-05-22T17:13:40.330Z,94766.69
2023-05-22T17:16:08.082Z,94776.16
2023-05-22T17:18:35.886Z,94767.91
2023-05-22T17:21:09.817Z,94723.41
2023-05-22T17:23:38.060Z,94717.38
2023-05-22T17:26:05.572Z,94709.59
2023-05-22T17:28:32.948Z,94780.56
2023-05-22T17:31:02.921Z,94785.78
2023-05-22T17:33:33.257Z,94705.63
2023-05-22T17:36:04.524Z,94725.81
2023-05-22T17:38:40.564Z,94785.66
2023-05-22T17:41:10.739Z,94721.06
2023-05-22T17:43:42.134Z,94746.25
2023-05-22T17:46:10.746Z,94746.69
2023-05-22T17:48:41.793Z,94786.44
2023-05-22T17:51:12.831Z,94697.03
2023-05-22T17:53:47.976Z,94812.16
2023-05-22T17:56:14.769Z,94742.81
2023-05-22T17:58:42.033Z,94783.88
2023-05-22T18:01:09.351Z,94807.09
2023-05-22T18:03:36.501Z,94792.78
2023-05-22T18:06:03.881Z,94792.78
2023-05-22T18:08:31.744Z,94760.38
2023-05-22T18:10:59.188Z,94748.50
2023-05-22T18:13:26.523Z,94810.84
2023-05-22T18:15:54.902Z,94790.94
2023-05-22T18:18:22.702Z,94794.91
2023-05-22T18:20:50.526Z,94815.97
2023-05-22T18:23:18.343Z,94821.66
2023-05-22T18:25:48.904Z,94771.47
2023-05-22T18:28:20.455Z,94824.81
2023-05-22T18:30:56.692Z,94755.69
2023-05-22T18:33:25.541Z,94772.22
2023-05-22T18:35:57.688Z,94840.31
2023-05-22T18:41:13.762Z,94800.13
2023-05-22T18:43:51.084Z,94898.38
2023-05-22T18:46:24.818Z,94901.06
2023-05-22T18:48:52.044Z,94870.22
2023-05-22T18:51:20.090Z,94896.59
2023-05-22T18:53:47.235Z,94895.84
2023-05-22T18:56:13.964Z,94903.44
2023-05-22T18:58:41.500Z,94899.72
2023-05-22T19:01:12.379Z,94903.00
2023-05-22T19:03:40.174Z,94902.00
2023-05-22T19:06:07.223Z,94898.75
2023-05-22T19:08:34.756Z,94899.50
2023-05-22T19:11:01.483Z,94907.19
2023-05-22T19:13:29.310Z,94922.06
2023-05-22T19:15:57.390Z,94912.97
2023-05-22T19:18:24.692Z,94928.78
2023-05-22T19:20:51.464Z,94932.47
2023-05-22T19:23:18.669Z,94905.25
2023-05-22T19:25:45.472Z,94923.19
2023-05-22T19:28:12.216Z,94917.16
2023-05-22T19:30:39.214Z,94900.13
2023-05-22T19:33:08.707Z,94897.81
2023-05-22T19:35:35.758Z,94875.69
2023-05-22T19:38:02.490Z,94871.56
2023-05-22T19:40:29.182Z,94878.03
2023-05-22T19:42:55.979Z,94895.81
2023-05-22T19:45:22.985Z,94900.81
2023-05-22T19:47:49.714Z,94861.19
2023-05-22T19:50:17.476Z,94854.41
2023-05-22T19:52:44.680Z,94882.19
2023-05-22T19:55:11.568Z,94876.91
2023-05-22T19:57:38.195Z,94880.63
2023-05-22T20:00:07.597Z,94889.13
2023-05-22T20:02:34.418Z,94883.00
2023-05-22T20:05:01.793Z,94896.53
2023-05-22T20:07:28.880Z,94867.94
2023-05-22T20:09:55.632Z,94887.88
2023-05-22T20:12:22.293Z,94889.88
2023-05-22T20:14:48.973Z,94884.88
2023-05-22T20:17:15.617Z,94867.44
2023-05-22T20:19:45.008Z,94879.88
2023-05-22T20:22:11.701Z,94890.63
2023-05-22T20:24:38.362Z,94893.06
2023-05-22T20:27:06.395Z,94896.84
2023-05-22T20:29:33.446Z,94884.31
2023-05-22T20:32:00.220Z,94887.03
2023-05-22T20:34:28.603Z,94891.97
2023-05-22T20:36:55.524Z,94881.78
2023-05-22T20:39:22.453Z,94889.31
2023-05-22T20:41:52.019Z,94892.25
2023-05-22T20:44:23.898Z,94883.50
2023-05-22T20:46:54.265Z,94884.16
2023-05-22T20:49:21.569Z,94892.38
2023-05-22T20:51:50.093Z,94873.75
2023-05-22T20:54:17.863Z,94890.22
2023-05-22T20:56:44.564Z,94889.00
2023-05-22T20:59:11.542Z,94880.56
2023-05-22T21:01:38.405Z,94883.75
2023-05-22T21:04:05.253Z,94869.97
2023-05-22T21:06:32.021Z,94873.28
2023-05-22T21:09:01.867Z,94878.00
2023-05-22T21:11:28.636Z,94885.63
2023-05-22T21:13:55.286Z,94882.25
2023-05-22T21:16:21.963Z,94878.78
2023-05-22T21:18:49.120Z,94888.38
2023-05-22T21:21:21.604Z,94898.66
2023-05-22T21:23:49.216Z,94906.97
2023-05-22T21:26:16.776Z,94910.66
2023-05-22T21:28:44.324Z,94906.59
2023-05-22T21:31:15.080Z,94913.56
2023-05-22T21:33:42.217Z,94856.00
2023-05-22T21:36:09.119Z,94905.59
2023-05-22T21:38:36.352Z,94914.16
2023-05-22T21:41:03.467Z,94905.28
2023-05-22T21:43:30.103Z,94902.81
2023-05-22T21:45:56.708Z,94889.16
2023-05-22T21:48:23.470Z,94900.09
2023-05-22T21:50:50.308Z,94904.97
2023-05-22T21:53:17.234Z,94875.47
2023-05-22T21:55:43.852Z,94883.03
2023-05-22T21:58:10.662Z,94886.19
2023-05-22T22:00:38.061Z,94891.38
2023-05-22T22:03:05.499Z,94910.69
2023-05-22T22:05:32.955Z,94910.13
2023-05-22T22:07:59.587Z,94899.03
2023-05-22T22:10:26.303Z,94909.19
2023-05-22T22:12:52.916Z,94925.22
2023-05-22T22:15:19.656Z,94914.44
2023-05-22T22:17:47.625Z,94912.88
2023-05-22T22:20:14.373Z,94904.59
2023-05-22T22:22:41.231Z,94913.16
2023-05-22T22:25:08.663Z,94901.13
2023-05-22T22:27:36.962Z,94906.66
2023-05-22T22:30:03.845Z,94905.16
2023-05-22T22:32:30.514Z,94909.47
2023-05-22T22:34:57.344Z,94904.00
2023-05-22T22:37:24.067Z,94901.00
2023-05-22T22:39:50.728Z,94914.72
2023-05-22T22:42:17.432Z,94906.53
2023-05-22T22:44:44.526Z,94906.13
2023-05-22T22:47:11.283Z,94907.19
2023-05-22T22:49:38.450Z,94905.50
2023-05-22T22:52:05.516Z,94903.16
2023-05-22T22:54:32.404Z,94894.31
2023-05-22T22:56:59.142Z,94895.66
2023-05-22T22:59:25.920Z,94882.63
2023-05-22T23:01:52.683Z,94890.53
2023-05-22T23:04:19.481Z,94900.88
2023-05-22T23:06:46.270Z,94889.50
2023-05-22T23:09:13.187Z,94870.69
2023-05-22T23:11:40.098Z,94874.66
2023-05-22T23:14:10.223Z,94893.78
2023-05-22T23:16:38.212Z,94879.34
2023-05-22T23:19:05.819Z,94873.25
2023-05-22T23:21:33.724Z,94876.81
2023-05-22T23:24:01.709Z,94883.50
2023-05-22T23:26:28.445Z,94884.38
2023-05-22T23:28:55.144Z,94882.66
2023-05-22T23:31:26.012Z,94881.91
2023-05-22T23:33:53.349Z,94874.00
2023-05-22T23:36:20.076Z,94868.72
2023-05-22T23:38:47.647Z,94854.97
2023-05-22T23:41:18.828Z,94878.53
2023-05-22T23:43:46.249Z,94878.91
2023-05-22T23:46:14.283Z,94877.22
2023-05-22T23:48:41.791Z,94870.78
2023-05-22T23:51:14.461Z,94887.13
2023-05-22T23:53:42.339Z,94885.09
2023-05-22T23:56:09.926Z,94865.88
2023-05-22T23:58:39.658Z,94864.00
